Time;durP1;ratioP1;P1;durP2;ratioP2;P2;SDS_P1;SDS_P2;PMS_P1;PMS_P2;Temp;Humidity;BMP_temperature;BMP_pressure;BME280_temperature;BME280_humidity;BME280_pressure;Samples;Min_cycle;Max_cycle;Signal;HPM_P1;HPM_P2
2021/05/16 00:01:18;;;;;;;17.02;9.30;;;15.00;77.30;;;;;;5098899;28;20099;-74
2021/05/16 00:03:43;;;;;;;19.08;9.07;;;15.00;77.30;;;;;;5096209;28;20078;-73
2021/05/16 00:06:09;;;;;;;16.92;9.50;;;15.00;77.30;;;;;;5078357;28;20025;-72
2021/05/16 00:08:35;;;;;;;17.55;9.20;;;15.00;77.30;;;;;;5086790;28;20028;-74
2021/05/16 00:11:01;;;;;;;16.95;8.48;;;14.90;77.40;;;;;;5094664;28;20120;-73
2021/05/16 00:13:27;;;;;;;18.75;8.65;;;14.90;77.40;;;;;;5087407;28;20020;-72
2021/05/16 00:15:52;;;;;;;11.70;6.53;;;14.90;77.40;;;;;;5096923;28;20044;-73
2021/05/16 00:18:18;;;;;;;10.68;6.82;;;14.90;77.30;;;;;;5082483;28;20039;-72
2021/05/16 00:20:44;;;;;;;13.80;7.10;;;14.90;77.30;;;;;;5094340;28;20032;-72
2021/05/16 00:23:11;;;;;;;14.07;6.78;;;14.90;77.40;;;;;;5095280;28;20032;-72
2021/05/16 00:25:37;;;;;;;15.68;7.15;;;14.90;77.40;;;;;;5084252;28;20103;-72
2021/05/16 00:28:03;;;;;;;16.45;7.97;;;14.90;77.50;;;;;;5092096;28;20099;-72
2021/05/16 00:30:29;;;;;;;19.67;7.65;;;14.80;77.50;;;;;;5094728;28;20035;-72
2021/05/16 00:32:57;;;;;;;16.33;7.65;;;14.70;77.60;;;;;;5083663;28;20025;-71
2021/05/16 00:35:25;;;;;;;14.00;7.22;;;14.60;77.70;;;;;;5087831;28;20024;-72
2021/05/16 00:37:51;;;;;;;11.73;7.38;;;14.50;77.90;;;;;;5083431;28;20036;-72
2021/05/16 00:40:17;;;;;;;12.10;7.28;;;14.40;78.30;;;;;;5095174;28;20031;-72
2021/05/16 00:42:44;;;;;;;10.45;6.72;;;14.30;78.70;;;;;;5093743;28;20024;-72
2021/05/16 00:45:20;;;;;;;10.98;7.18;;;14.30;78.90;;;;;;5093528;28;20024;-72
2021/05/16 00:47:52;;;;;;;12.13;7.00;;;14.20;79.00;;;;;;5080712;28;20020;-72
2021/05/16 00:50:20;;;;;;;12.55;7.53;;;14.20;79.20;;;;;;5093867;28;20031;-73
2021/05/16 00:52:46;;;;;;;12.43;7.57;;;14.10;79.40;;;;;;5094577;28;20023;-72
2021/05/16 00:55:14;;;;;;;11.43;7.75;;;14.10;79.60;;;;;;5094439;28;20417;-72
2021/05/16 00:57:41;;;;;;;15.68;7.03;;;14.00;79.80;;;;;;5092821;28;20020;-72
2021/05/16 01:00:09;;;;;;;14.52;7.78;;;14.00;80.00;;;;;;5093892;28;20056;-72
2021/05/16 01:02:35;;;;;;;14.80;7.80;;;14.00;80.30;;;;;;5076398;28;20051;-72
2021/05/16 01:05:01;;;;;;;15.80;7.95;;;14.00;80.50;;;;;;5073724;28;20048;-72
2021/05/16 01:07:27;;;;;;;15.20;7.70;;;14.00;80.70;;;;;;5073411;28;20028;-72
2021/05/16 01:09:54;;;;;;;12.27;7.95;;;14.00;80.80;;;;;;5086386;28;20387;-72
2021/05/16 01:12:20;;;;;;;14.02;8.25;;;13.90;80.80;;;;;;5087257;28;20527;-70
2021/05/16 01:14:48;;;;;;;15.65;9.02;;;13.90;81.00;;;;;;5074269;28;20040;-72
2021/05/16 01:17:14;;;;;;;16.88;8.38;;;13.90;81.20;;;;;;5084569;28;20470;-72
2021/05/16 01:19:41;;;;;;;12.98;8.70;;;13.90;81.40;;;;;;5092936;28;20073;-72
2021/05/16 01:22:08;;;;;;;16.75;9.15;;;13.90;81.60;;;;;;5083051;28;20127;-72
2021/05/16 01:24:37;;;;;;;16.83;8.77;;;13.80;81.70;;;;;;5089280;28;20170;-72
2021/05/16 01:27:12;;;;;;;17.35;9.40;;;13.80;81.80;;;;;;5094348;28;20028;-72
2021/05/16 01:29:38;;;;;;;14.52;8.77;;;13.80;81.90;;;;;;5094207;28;20035;-73
2021/05/16 01:32:10;;;;;;;14.15;8.73;;;13.80;81.70;;;;;;5094136;28;20024;-72
2021/05/16 01:34:36;;;;;;;19.85;10.85;;;13.80;81.80;;;;;;5094507;28;20157;-73
2021/05/16 01:37:02;;;;;;;17.95;10.88;;;13.70;81.90;;;;;;5080267;28;20035;-72
2021/05/16 01:39:27;;;;;;;17.55;10.52;;;13.60;82.10;;;;;;5094156;28;20036;-72
2021/05/16 01:41:55;;;;;;;16.77;10.50;;;13.50;82.40;;;;;;5093888;28;20051;-72
2021/05/16 01:44:20;;;;;;;22.63;10.60;;;13.50;82.80;;;;;;5080151;28;20024;-73
2021/05/16 01:46:46;;;;;;;20.50;11.38;;;13.50;82.80;;;;;;5094766;28;20031;-73
2021/05/16 01:49:12;;;;;;;19.05;11.50;;;13.50;82.80;;;;;;5097618;28;20059;-73
2021/05/16 01:51:38;;;;;;;28.30;12.27;;;13.40;83.10;;;;;;5095163;28;20020;-72
2021/05/16 01:54:07;;;;;;;24.50;12.70;;;13.30;83.40;;;;;;5096051;28;20023;-72
2021/05/16 01:56:33;;;;;;;25.23;13.20;;;13.30;83.70;;;;;;5094441;28;20020;-72
2021/05/16 01:58:58;;;;;;;20.77;11.85;;;13.20;84.00;;;;;;5095794;28;20035;-72
2021/05/16 02:01:25;;;;;;;22.45;12.30;;;13.20;84.30;;;;;;5100206;28;20028;-71
2021/05/16 02:03:52;;;;;;;22.17;13.00;;;13.10;84.70;;;;;;5087549;28;20033;-72
2021/05/16 02:06:18;;;;;;;23.30;11.75;;;13.00;85.00;;;;;;5095094;28;20035;-72
2021/05/16 02:08:45;;;;;;;23.65;12.20;;;13.00;85.30;;;;;;5094513;28;20039;-73
2021/05/16 02:11:11;;;;;;;22.23;12.85;;;13.10;85.60;;;;;;5091681;28;20020;-72
2021/05/16 02:13:39;;;;;;;24.08;13.70;;;13.00;85.70;;;;;;5072414;28;20124;-72
2021/05/16 02:16:07;;;;;;;25.67;13.02;;;13.10;86.00;;;;;;5071961;28;20045;-73
2021/05/16 02:18:33;;;;;;;23.42;12.63;;;13.10;86.00;;;;;;5073422;28;20090;-73
2021/05/16 02:21:00;;;;;;;23.00;12.60;;;13.00;85.70;;;;;;5084875;28;20111;-73
2021/05/16 02:23:26;;;;;;;22.88;12.70;;;12.90;85.90;;;;;;5076225;28;20025;-72
2021/05/16 02:25:52;;;;;;;23.70;12.23;;;12.80;86.20;;;;;;5073572;28;20044;-72
2021/05/16 02:28:18;;;;;;;25.35;14.13;;;12.80;86.40;;;;;;5074860;28;20029;-71
2021/05/16 02:30:46;;;;;;;24.77;14.77;;;12.80;86.80;;;;;;5094020;28;20031;-72
2021/05/16 02:33:12;;;;;;;20.45;12.70;;;12.80;87.30;;;;;;5097980;28;20020;-72
2021/05/16 02:35:38;;;;;;;20.83;13.13;;;12.90;87.80;;;;;;5076335;28;20035;-71
2021/05/16 02:38:05;;;;;;;19.60;12.25;;;13.00;87.80;;;;;;5087937;28;20579;-71
2021/05/16 02:40:31;;;;;;;18.80;11.63;;;13.00;88.40;;;;;;5097173;28;20024;-72
2021/05/16 02:42:57;;;;;;;20.67;11.98;;;13.20;89.30;;;;;;5095989;28;20053;-72
2021/05/16 02:45:23;;;;;;;21.58;12.52;;;13.30;88.70;;;;;;5096327;28;20025;-72
2021/05/16 02:47:49;;;;;;;19.20;11.45;;;13.50;88.50;;;;;;5096366;28;20082;-72
2021/05/16 02:50:15;;;;;;;19.55;12.65;;;13.60;88.10;;;;;;5096239;28;20028;-72
2021/05/16 02:52:41;;;;;;;26.52;13.05;;;13.70;88.30;;;;;;5096100;28;20371;-73
2021/05/16 02:55:08;;;;;;;19.90;12.10;;;14.00;89.10;;;;;;5095514;28;20085;-73
2021/05/16 02:57:33;;;;;;;22.05;11.57;;;14.40;88.90;;;;;;5095573;28;20020;-72
2021/05/16 02:59:59;;;;;;;23.77;11.57;;;14.80;88.10;;;;;;5096887;28;20040;-72
2021/05/16 03:02:25;;;;;;;27.48;11.98;;;15.20;87.00;;;;;;5097257;28;20024;-72
2021/05/16 03:04:51;;;;;;;27.27;13.23;;;15.60;85.50;;;;;;5097078;28;20032;-73
2021/05/16 03:07:16;;;;;;;39.53;13.07;;;15.80;83.20;;;;;;5095715;28;20485;-72
2021/05/16 03:09:42;;;;;;;23.45;11.13;;;16.00;82.00;;;;;;5089651;28;20374;-73
2021/05/16 03:12:08;;;;;;;29.02;12.85;;;16.30;81.50;;;;;;5087791;28;20444;-73
2021/05/16 03:14:39;;;;;;;31.92;12.93;;;16.70;80.30;;;;;;5096832;28;20127;-73
2021/05/16 03:17:04;;;;;;;26.30;11.80;;;16.90;79.50;;;;;;5096724;28;20354;-73
2021/05/16 03:19:31;;;;;;;23.08;11.90;;;17.20;77.80;;;;;;5080710;28;20032;-72
2021/05/16 03:21:59;;;;;;;29.27;12.15;;;17.50;77.00;;;;;;5076772;28;20033;-73
2021/05/16 03:24:26;;;;;;;24.15;11.57;;;17.80;75.90;;;;;;5075411;28;20028;-73
2021/05/16 03:26:52;;;;;;;20.00;10.82;;;18.10;74.90;;;;;;5076820;28;20024;-74
2021/05/16 03:29:17;;;;;;;17.15;10.90;;;18.50;73.80;;;;;;5076459;28;20367;-73
2021/05/16 03:31:43;;;;;;;24.15;11.23;;;18.80;72.70;;;;;;5076810;28;20037;-73
2021/05/16 03:34:09;;;;;;;28.58;11.70;;;19.20;71.60;;;;;;5086383;28;20024;-74
2021/05/16 03:36:35;;;;;;;16.70;11.20;;;19.50;70.70;;;;;;5098194;28;20028;-73
2021/05/16 03:39:01;;;;;;;20.30;10.55;;;19.80;69.80;;;;;;5096962;28;20059;-74
2021/05/16 03:41:26;;;;;;;19.92;9.85;;;20.10;68.60;;;;;;5096258;28;20028;-74
2021/05/16 03:43:52;;;;;;;18.50;9.68;;;20.40;67.60;;;;;;5099454;28;20028;-73
2021/05/16 03:46:18;;;;;;;23.88;9.40;;;20.80;66.60;;;;;;5099119;28;20416;-74
2021/05/16 03:48:43;;;;;;;22.85;9.18;;;21.20;65.30;;;;;;5103524;28;20043;-81
2021/05/16 03:51:10;;;;;;;20.55;9.00;;;21.50;64.10;;;;;;5115913;28;20084;-74
2021/05/16 03:53:38;;;;;;;22.48;8.30;;;21.90;63.20;;;;;;5107410;28;20051;-74
2021/05/16 03:56:08;;;;;;;18.13;9.10;;;22.20;61.90;;;;;;5094840;28;20451;-73
2021/05/16 03:58:34;;;;;;;20.33;9.77;;;22.50;61.00;;;;;;5090358;28;20115;-74
2021/05/16 04:01:00;;;;;;;20.00;9.50;;;22.90;60.00;;;;;;5102600;28;20028;-74
2021/05/16 04:03:25;;;;;;;20.00;9.35;;;23.20;59.00;;;;;;5098857;28;20044;-74
2021/05/16 04:05:51;;;;;;;18.77;9.00;;;23.40;58.00;;;;;;5094718;28;20036;-74
2021/05/16 04:08:17;;;;;;;21.40;9.73;;;23.60;57.20;;;;;;5092459;28;20031;-73
2021/05/16 04:10:43;;;;;;;20.13;9.15;;;23.90;57.10;;;;;;5094624;28;20028;-70
2021/05/16 04:13:08;;;;;;;20.83;9.88;;;24.10;56.40;;;;;;5092981;28;20039;-70
2021/05/16 04:15:34;;;;;;;18.95;9.48;;;24.30;56.00;;;;;;5092539;28;20123;-67
2021/05/16 04:18:00;;;;;;;19.30;9.63;;;24.30;55.50;;;;;;5093815;28;20036;-67
2021/05/16 04:20:25;;;;;;;20.30;9.90;;;24.40;55.20;;;;;;5093816;28;20478;-75
2021/05/16 04:22:51;;;;;;;15.80;9.50;;;24.60;54.80;;;;;;5092872;28;20054;-68
2021/05/16 04:25:17;;;;;;;18.73;9.63;;;24.80;54.30;;;;;;5094401;28;20351;-69
2021/05/16 04:27:43;;;;;;;16.75;9.18;;;25.00;53.50;;;;;;5094063;28;20032;-73
2021/05/16 04:30:09;;;;;;;13.02;8.85;;;25.30;53.10;;;;;;5094019;28;20024;-73
2021/05/16 04:32:35;;;;;;;13.80;9.63;;;25.50;52.40;;;;;;5094010;28;20056;-73
2021/05/16 04:35:00;;;;;;;15.07;9.52;;;25.70;52.10;;;;;;5092720;28;20059;-73
2021/05/16 04:37:26;;;;;;;16.13;10.80;;;26.10;51.90;;;;;;5092846;28;20028;-73
2021/05/16 04:39:52;;;;;;;26.67;11.25;;;26.50;51.00;;;;;;5094002;28;20032;-73
2021/05/16 04:42:18;;;;;;;17.23;10.18;;;26.90;50.50;;;;;;5092757;28;20032;-73
2021/05/16 04:44:43;;;;;;;16.38;9.30;;;27.10;50.00;;;;;;5092628;28;20096;-74
2021/05/16 04:47:09;;;;;;;23.10;10.10;;;27.30;49.50;;;;;;5094034;28;20078;-76
2021/05/16 04:49:35;;;;;;;16.85;8.65;;;27.40;49.50;;;;;;5092585;28;20577;-75
2021/05/16 04:52:01;;;;;;;14.18;7.90;;;27.50;49.10;;;;;;5084250;28;20061;-72
2021/05/16 04:54:27;;;;;;;18.27;10.00;;;27.70;49.10;;;;;;5090460;28;20115;-72
2021/05/16 04:56:53;;;;;;;18.17;10.48;;;27.70;48.50;;;;;;5082572;28;20462;-72
2021/05/16 04:59:18;;;;;;;15.85;10.00;;;27.90;48.40;;;;;;5089889;28;20031;-70
2021/05/16 05:01:44;;;;;;;13.25;9.85;;;28.10;48.00;;;;;;5088153;28;20356;-72
2021/05/16 05:04:10;;;;;;;15.77;11.07;;;28.30;47.20;;;;;;5089021;28;20020;-70
2021/05/16 05:06:36;;;;;;;13.70;8.90;;;28.60;47.10;;;;;;5084458;28;20096;-72
2021/05/16 05:09:05;;;;;;;14.02;7.10;;;29.00;46.90;;;;;;5085668;28;20036;-75
2021/05/16 05:11:32;;;;;;;13.70;7.30;;;29.30;46.10;;;;;;5086302;28;20075;-71
2021/05/16 05:13:58;;;;;;;12.38;7.30;;;29.10;46.00;;;;;;5084939;28;20024;-71
2021/05/16 05:16:23;;;;;;;9.50;6.18;;;28.80;46.20;;;;;;5085508;28;20042;-71
2021/05/16 05:18:49;;;;;;;8.60;5.88;;;28.60;46.50;;;;;;5089093;28;20028;-72
2021/05/16 05:21:15;;;;;;;9.43;5.28;;;28.30;46.70;;;;;;5090071;28;20485;-71
2021/05/16 05:23:40;;;;;;;8.88;5.80;;;28.20;47.10;;;;;;5101283;28;20022;-71
2021/05/16 05:26:06;;;;;;;10.80;6.20;;;28.10;47.50;;;;;;5095459;28;20062;-71
2021/05/16 05:28:32;;;;;;;11.90;6.25;;;28.00;47.70;;;;;;5072537;28;20021;-72
2021/05/16 05:30:57;;;;;;;51.35;10.30;;;28.00;48.30;;;;;;5073806;28;20025;-71
2021/05/16 05:33:23;;;;;;;10.63;6.47;;;28.10;49.10;;;;;;5092417;28;20451;-71
2021/05/16 05:35:49;;;;;;;12.23;6.38;;;28.20;48.70;;;;;;5094438;28;20061;-71
2021/05/16 05:38:15;;;;;;;21.38;16.30;;;28.30;48.20;;;;;;5099680;28;20039;-71
2021/05/16 05:40:41;;;;;;;23.42;13.13;;;28.40;48.40;;;;;;5087501;28;20034;-71
2021/05/16 05:43:07;;;;;;;17.98;12.68;;;28.50;47.80;;;;;;5090666;28;20469;-71
2021/05/16 05:45:33;;;;;;;20.30;14.35;;;28.50;48.00;;;;;;5098485;28;20051;-72
2021/05/16 05:47:59;;;;;;;23.60;13.70;;;28.60;47.90;;;;;;5095383;28;20030;-73
2021/05/16 05:50:31;;;;;;;17.15;12.55;;;28.80;48.30;;;;;;5095339;28;20055;-80
2021/05/16 05:53:01;;;;;;;15.73;13.68;;;28.90;47.70;;;;;;5087240;28;20092;-74
2021/05/16 05:55:31;;;;;;;17.13;13.07;;;29.00;46.80;;;;;;5077195;28;20046;-78
2021/05/16 05:57:57;;;;;;;17.73;13.32;;;29.10;46.10;;;;;;5081613;28;20024;-78
2021/05/16 06:00:23;;;;;;;17.17;11.77;;;29.20;46.30;;;;;;5090371;28;20066;-67
2021/05/16 06:02:49;;;;;;;18.77;13.07;;;29.20;46.20;;;;;;5089239;28;20032;-67
2021/05/16 06:05:15;;;;;;;17.23;10.50;;;29.20;45.60;;;;;;5091315;28;20543;-72
2021/05/16 06:07:40;;;;;;;19.80;12.52;;;29.30;45.20;;;;;;5091131;28;20032;-67
2021/05/16 06:10:06;;;;;;;17.70;13.95;;;29.50;45.40;;;;;;5091004;28;20039;-69
2021/05/16 06:12:32;;;;;;;20.90;15.98;;;29.40;45.00;;;;;;5091736;28;20060;-67
2021/05/16 06:14:59;;;;;;;22.25;17.17;;;29.40;44.70;;;;;;5081720;28;20117;-67
2021/05/16 06:17:26;;;;;;;21.17;12.45;;;29.30;44.50;;;;;;5083134;28;20489;-69
2021/05/16 06:19:52;;;;;;;19.83;14.02;;;29.30;44.30;;;;;;5088061;28;20036;-69
2021/05/16 06:22:18;;;;;;;21.25;13.35;;;29.30;44.10;;;;;;5091348;28;20031;-72
2021/05/16 06:24:44;;;;;;;20.00;13.80;;;29.50;44.70;;;;;;5087394;28;20020;-69
2021/05/16 06:27:10;;;;;;;19.85;12.48;;;29.90;44.40;;;;;;5084215;28;20024;-69
2021/05/16 06:29:35;;;;;;;22.58;13.45;;;30.30;43.60;;;;;;5089989;28;20036;-69
2021/05/16 06:32:01;;;;;;;22.83;17.10;;;30.70;43.60;;;;;;5078708;28;20085;-70
2021/05/16 06:34:27;;;;;;;20.17;15.25;;;30.80;42.00;;;;;;5090683;28;20028;-70
2021/05/16 06:36:54;;;;;;;13.70;9.60;;;31.10;41.70;;;;;;5090938;28;20032;-69
2021/05/16 06:39:21;;;;;;;13.02;10.77;;;31.20;41.00;;;;;;5090802;28;20059;-69
2021/05/16 06:41:47;;;;;;;11.77;8.23;;;31.50;40.50;;;;;;5086951;28;20028;-69
2021/05/16 06:44:13;;;;;;;11.18;5.40;;;31.80;40.50;;;;;;5088380;28;20081;-70
2021/05/16 06:46:39;;;;;;;7.53;3.03;;;32.00;40.00;;;;;;5086506;28;20029;-69
2021/05/16 06:49:04;;;;;;;6.13;2.67;;;32.30;39.20;;;;;;5088383;28;20027;-67
2021/05/16 06:51:30;;;;;;;8.35;2.55;;;32.40;38.70;;;;;;5091024;28;20463;-68
2021/05/16 06:53:56;;;;;;;6.40;2.50;;;32.60;38.40;;;;;;5087506;28;20111;-71
2021/05/16 06:56:21;;;;;;;3.88;1.75;;;32.80;38.30;;;;;;5090094;28;20025;-68
2021/05/16 06:58:47;;;;;;;3.20;1.80;;;32.80;37.80;;;;;;5088166;28;20148;-68
2021/05/16 07:01:13;;;;;;;5.10;1.70;;;32.50;37.00;;;;;;5091436;28;20101;-67
2021/05/16 07:03:41;;;;;;;6.30;3.40;;;31.90;36.80;;;;;;5091437;28;20097;-67
2021/05/16 07:06:07;;;;;;;10.48;4.72;;;31.40;37.40;;;;;;5089956;28;20024;-68
2021/05/16 07:08:34;;;;;;;9.00;4.53;;;31.00;38.20;;;;;;5090138;28;20529;-68
2021/05/16 07:11:00;;;;;;;6.30;3.80;;;30.70;38.70;;;;;;5088030;28;20061;-68
2021/05/16 07:13:26;;;;;;;5.55;3.10;;;30.90;39.20;;;;;;5108233;28;20032;-68
2021/05/16 07:15:51;;;;;;;6.30;3.78;;;31.10;38.70;;;;;;5091670;28;20044;-72
2021/05/16 07:18:17;;;;;;;5.63;3.78;;;31.30;38.60;;;;;;5086071;28;20056;-69
2021/05/16 07:20:43;;;;;;;6.70;3.90;;;31.40;38.60;;;;;;5090521;28;20031;-68
2021/05/16 07:23:09;;;;;;;7.55;4.13;;;31.40;38.50;;;;;;5078037;28;20082;-67
2021/05/16 07:25:34;;;;;;;8.20;5.05;;;31.20;38.10;;;;;;5085431;28;20463;-67
2021/05/16 07:28:00;;;;;;;5.53;2.42;;;30.90;38.70;;;;;;5094274;28;20459;-67
2021/05/16 07:30:26;;;;;;;5.80;2.53;;;30.60;38.60;;;;;;5094041;28;20532;-72
2021/05/16 07:32:51;;;;;;;6.72;3.33;;;30.30;38.80;;;;;;5086706;28;20071;-71
2021/05/16 07:35:17;;;;;;;9.55;3.70;;;30.20;39.40;;;;;;5088581;28;20051;-67
2021/05/16 07:37:43;;;;;;;7.70;3.72;;;30.20;40.00;;;;;;5095750;28;20474;-68
2021/05/16 07:40:13;;;;;;;8.90;4.45;;;30.40;40.50;;;;;;5113901;28;20108;-67
2021/05/16 07:42:39;;;;;;;3.97;2.42;;;30.80;41.30;;;;;;5095000;28;20063;-68
2021/05/16 07:45:06;;;;;;;5.32;3.00;;;31.20;39.90;;;;;;5095332;28;20020;-66
2021/05/16 07:47:32;;;;;;;4.63;2.53;;;31.60;39.70;;;;;;5092574;28;20025;-67
2021/05/16 07:49:58;;;;;;;3.25;2.40;;;31.80;39.10;;;;;;5089142;28;20099;-67
2021/05/16 07:52:24;;;;;;;2.63;2.00;;;32.20;38.10;;;;;;5094829;28;20393;-69
2021/05/16 07:54:49;;;;;;;5.32;3.08;;;32.40;37.40;;;;;;5094697;28;20039;-67
2021/05/16 07:57:15;;;;;;;6.07;4.20;;;32.60;36.90;;;;;;5093005;28;20363;-68
2021/05/16 07:59:41;;;;;;;29.30;26.60;;;32.40;37.70;;;;;;5093722;28;20035;-67
2021/05/16 08:02:07;;;;;;;14.13;10.40;;;32.60;38.20;;;;;;5094631;28;20035;-67
2021/05/16 08:04:33;;;;;;;6.72;3.65;;;32.80;37.90;;;;;;5093973;28;20024;-67
2021/05/16 08:06:59;;;;;;;6.80;3.00;;;32.90;37.10;;;;;;5094714;28;20039;-67
2021/05/16 08:09:25;;;;;;;6.28;3.58;;;32.80;36.80;;;;;;5083559;28;20040;-67
2021/05/16 08:11:51;;;;;;;3.88;2.10;;;32.50;36.90;;;;;;5090171;28;20032;-68
2021/05/16 08:14:17;;;;;;;5.97;4.55;;;32.30;37.10;;;;;;5091706;28;20032;-68
2021/05/16 08:16:43;;;;;;;5.38;3.75;;;32.00;36.60;;;;;;5092058;28;20081;-67
2021/05/16 08:19:09;;;;;;;3.28;2.30;;;31.80;38.00;;;;;;5084384;28;20506;-67
2021/05/16 08:21:36;;;;;;;3.25;1.67;;;31.90;36.70;;;;;;5088175;28;20048;-67
2021/05/16 08:24:03;;;;;;;1.77;1.30;;;31.90;36.10;;;;;;5083540;28;20481;-67
2021/05/16 08:26:29;;;;;;;3.30;2.10;;;31.80;35.40;;;;;;5086685;28;20062;-68
2021/05/16 08:28:54;;;;;;;4.53;2.20;;;31.70;36.00;;;;;;5083123;28;20052;-67
2021/05/16 08:31:20;;;;;;;5.68;4.25;;;31.60;36.50;;;;;;5090636;28;20035;-67
2021/05/16 08:33:46;;;;;;;7.55;3.50;;;31.50;36.50;;;;;;5085102;28;20032;-67
2021/05/16 08:36:11;;;;;;;1.90;1.00;;;31.70;36.50;;;;;;5088291;28;20024;-68
2021/05/16 08:38:37;;;;;;;3.00;1.20;;;31.80;35.80;;;;;;5089208;28;20044;-67
2021/05/16 08:41:03;;;;;;;1.70;1.20;;;31.90;35.60;;;;;;5091948;28;20103;-69
2021/05/16 08:43:28;;;;;;;3.03;1.60;;;31.80;35.30;;;;;;5078483;28;20077;-68
2021/05/16 08:45:54;;;;;;;1.63;1.27;;;31.60;35.50;;;;;;5085019;28;20025;-67
2021/05/16 08:48:20;;;;;;;2.85;1.00;;;31.50;35.60;;;;;;5080405;28;20113;-67
2021/05/16 08:50:46;;;;;;;1.90;1.10;;;31.50;35.50;;;;;;5091697;28;20155;-68
2021/05/16 08:53:12;;;;;;;1.52;0.90;;;31.60;36.20;;;;;;5093662;28;20111;-67
2021/05/16 08:55:37;;;;;;;3.67;1.40;;;31.70;35.70;;;;;;5083057;28;20067;-68
2021/05/16 08:58:04;;;;;;;16.52;5.13;;;31.80;35.90;;;;;;5088044;28;20385;-67
2021/05/16 09:00:32;;;;;;;16.02;9.60;;;32.00;36.80;;;;;;5092793;28;20028;-68
2021/05/16 09:03:02;;;;;;;10.60;7.80;;;32.40;37.20;;;;;;5079219;28;20028;-67
2021/05/16 09:05:32;;;;;;;8.70;5.18;;;32.70;36.80;;;;;;5085219;28;20039;-67
2021/05/16 09:08:00;;;;;;;10.75;4.15;;;32.90;36.90;;;;;;5092353;28;20449;-68
2021/05/16 09:10:26;;;;;;;1.92;1.35;;;33.10;36.70;;;;;;5093253;28;20113;-67
2021/05/16 09:13:05;;;;;;;1.27;0.90;;;33.20;35.10;;;;;;5079129;28;20046;-67
2021/05/16 09:15:32;;;;;;;2.20;0.57;;;32.90;34.10;;;;;;5093409;28;20040;-67
2021/05/16 09:17:58;;;;;;;3.50;1.77;;;32.60;33.40;;;;;;5092909;28;20158;-67
2021/05/16 09:20:24;;;;;;;2.35;1.38;;;32.30;34.30;;;;;;5092943;28;20522;-68
2021/05/16 09:22:51;;;;;;;2.70;1.10;;;31.90;34.30;;;;;;5087988;28;20458;-68
2021/05/16 09:25:26;;;;;;;4.65;2.20;;;31.70;34.60;;;;;;5086750;28;20031;-68
2021/05/16 09:27:52;;;;;;;4.05;2.47;;;31.40;36.10;;;;;;5095578;28;20031;-68
2021/05/16 09:30:18;;;;;;;1.27;0.98;;;31.20;36.30;;;;;;5078581;28;20024;-72
2021/05/16 09:33:07;;;;;;;2.05;0.90;;;31.10;35.70;;;;;;5088325;28;20155;-68
2021/05/16 09:35:38;;;;;;;3.22;2.28;;;30.90;35.20;;;;;;5086416;28;20028;-68
2021/05/16 09:38:18;;;;;;;3.80;1.52;;;30.70;35.90;;;;;;5089986;28;20024;-68
2021/05/16 09:40:52;;;;;;;5.50;2.50;;;30.50;36.60;;;;;;5077849;28;20037;-69
2021/05/16 09:43:28;;;;;;;1.00;0.80;;;30.60;36.80;;;;;;5087607;28;20099;-68
2021/05/16 09:46:02;;;;;;;1.92;1.05;;;30.70;36.70;;;;;;5107025;28;20493;-67
2021/05/16 09:48:41;;;;;;;1.75;1.30;;;31.00;36.90;;;;;;5092288;28;20035;-67
2021/05/16 09:51:26;;;;;;;1.77;1.15;;;31.10;36.60;;;;;;5088215;28;20041;-72
2021/05/16 09:53:54;;;;;;;2.03;1.10;;;31.30;36.40;;;;;;5085930;28;20024;-73
2021/05/16 09:56:25;;;;;;;1.40;1.10;;;31.60;36.20;;;;;;5087867;28;20036;-71
2021/05/16 09:58:53;;;;;;;1.75;0.90;;;31.90;36.30;;;;;;5087904;28;20024;-71
2021/05/16 10:01:20;;;;;;;1.13;0.80;;;32.10;35.70;;;;;;5086721;28;20359;-73
2021/05/16 10:03:48;;;;;;;0.75;0.68;;;32.10;35.40;;;;;;5087740;28;20024;-74
2021/05/16 10:06:14;;;;;;;4.72;1.42;;;31.90;35.80;;;;;;5091254;28;20053;-71
2021/05/16 10:08:43;;;;;;;3.28;1.20;;;31.80;35.70;;;;;;5085824;28;20035;-71
2021/05/16 10:11:10;;;;;;;2.45;1.20;;;31.80;35.60;;;;;;5086902;28;20024;-72
2021/05/16 10:13:41;;;;;;;2.65;1.85;;;31.90;35.50;;;;;;5087227;28;20400;-71
2021/05/16 10:16:14;;;;;;;1.10;0.80;;;31.70;35.10;;;;;;5080542;28;20044;-72
2021/05/16 10:18:40;;;;;;;0.90;0.65;;;31.70;35.30;;;;;;5081947;28;20074;-72
2021/05/16 10:21:07;;;;;;;3.33;1.60;;;31.40;35.00;;;;;;5084052;28;20054;-72
2021/05/16 10:23:38;;;;;;;5.32;2.00;;;31.10;35.00;;;;;;5085102;28;20031;-72
2021/05/16 10:26:24;;;;;;;3.50;1.35;;;30.90;36.70;;;;;;5081145;28;20046;-75
2021/05/16 10:29:01;;;;;;;2.45;1.30;;;31.00;36.20;;;;;;5104759;28;20034;-72
2021/05/16 10:31:50;;;;;;;2.60;1.35;;;31.10;35.80;;;;;;5087832;28;20035;-72
2021/05/16 10:34:25;;;;;;;2.25;1.30;;;31.20;35.60;;;;;;5092075;28;20029;-71
2021/05/16 10:36:54;;;;;;;2.38;1.42;;;31.20;35.10;;;;;;5079392;28;20035;-72
2021/05/16 10:39:39;;;;;;;2.67;0.80;;;31.20;35.00;;;;;;5077593;28;20033;-73
2021/05/16 10:42:14;;;;;;;2.67;1.05;;;31.30;34.90;;;;;;5099858;28;20444;-72
2021/05/16 10:44:55;;;;;;;3.95;1.30;;;31.50;35.50;;;;;;5084670;28;20051;-73
2021/05/16 10:47:50;;;;;;;1.73;0.80;;;31.90;34.50;;;;;;5079315;28;20475;-72
2021/05/16 10:50:40;;;;;;;2.72;1.02;;;32.00;33.40;;;;;;5088920;28;20111;-73
2021/05/16 10:53:08;;;;;;;3.40;1.20;;;32.00;33.20;;;;;;5093242;28;20355;-72
2021/05/16 10:55:34;;;;;;;1.60;0.70;;;32.10;32.80;;;;;;5096077;28;20031;-72
2021/05/16 10:58:01;;;;;;;1.88;0.93;;;32.20;32.10;;;;;;5096529;28;20032;-72
2021/05/16 11:00:32;;;;;;;5.78;3.55;;;31.90;32.00;;;;;;5096608;28;20471;-72
2021/05/16 11:03:11;;;;;;;7.70;4.70;;;31.90;32.10;;;;;;5096524;28;20020;-72
2021/05/16 11:08:31;;;;;;;10.75;4.10;;;31.70;32.70;;;;;;5082785;28;20443;-72
2021/05/16 11:11:01;;;;;;;2.90;2.20;;;31.30;32.60;;;;;;5096680;28;20020;-72
2021/05/16 11:13:29;;;;;;;6.15;3.95;;;31.00;32.40;;;;;;5097061;28;20085;-72
2021/05/16 11:16:06;;;;;;;8.88;2.90;;;30.80;32.80;;;;;;5096655;28;20052;-72
2021/05/16 11:18:33;;;;;;;7.43;5.22;;;30.70;34.10;;;;;;5088686;28;20039;-72
2021/05/16 11:21:01;;;;;;;10.57;6.80;;;30.40;33.60;;;;;;5090304;28;20387;-72
2021/05/16 11:23:35;;;;;;;11.85;10.20;;;30.30;34.20;;;;;;5097798;28;20024;-71
2021/05/16 11:26:03;;;;;;;4.57;2.88;;;30.30;34.30;;;;;;5112194;28;20034;-72
2021/05/16 11:28:31;;;;;;;7.50;3.20;;;30.20;33.70;;;;;;5112807;28;20032;-73
2021/05/16 11:30:57;;;;;;;4.13;1.67;;;30.10;33.60;;;;;;5108004;28;20024;-71
2021/05/16 11:33:27;;;;;;;2.22;1.10;;;29.90;34.00;;;;;;5106966;28;20044;-71
2021/05/16 11:35:53;;;;;;;6.38;3.60;;;29.90;33.70;;;;;;5097281;28;20028;-71
2021/05/16 11:38:29;;;;;;;2.35;1.65;;;29.70;33.60;;;;;;5095380;28;20036;-72
2021/05/16 11:40:56;;;;;;;2.35;0.98;;;29.50;33.80;;;;;;5094049;28;20114;-71
2021/05/16 11:43:29;;;;;;;7.00;3.72;;;29.40;33.90;;;;;;5095193;28;20020;-72
2021/05/16 11:45:55;;;;;;;18.23;16.27;;;29.30;33.90;;;;;;5095780;28;20401;-71
2021/05/16 11:48:42;;;;;;;9.27;6.90;;;29.20;33.80;;;;;;5093780;28;20043;-71
2021/05/16 11:51:16;;;;;;;4.55;3.80;;;29.00;34.30;;;;;;5080991;28;20505;-71
2021/05/16 11:53:48;;;;;;;7.87;6.60;;;28.80;34.40;;;;;;5111462;28;20035;-71
2021/05/16 11:56:18;;;;;;;8.45;6.82;;;28.50;34.70;;;;;;5095374;28;20312;-71
2021/05/16 11:58:56;;;;;;;11.55;3.20;;;28.30;35.10;;;;;;5093513;28;20028;-72
2021/05/16 12:01:23;;;;;;;6.35;3.25;;;28.20;35.50;;;;;;5095312;28;20036;-71
2021/05/16 12:03:56;;;;;;;7.55;3.15;;;28.10;36.00;;;;;;5095094;28;20024;-71
2021/05/16 12:06:23;;;;;;;13.43;6.18;;;28.10;35.90;;;;;;5093339;28;20103;-71
2021/05/16 12:09:10;;;;;;;8.00;4.07;;;28.10;35.80;;;;;;5094817;28;20032;-71
2021/05/16 12:11:37;;;;;;;5.55;2.28;;;28.20;35.90;;;;;;5094911;28;20051;-71
2021/05/16 12:14:08;;;;;;;5.68;2.67;;;28.20;35.50;;;;;;5093803;28;20024;-71
2021/05/16 12:16:34;;;;;;;7.78;2.40;;;28.20;35.50;;;;;;5092946;28;20022;-72
2021/05/16 12:19:00;;;;;;;8.45;3.40;;;28.10;35.80;;;;;;5094931;28;20492;-72
2021/05/16 12:21:26;;;;;;;8.95;4.07;;;28.00;36.70;;;;;;5094298;28;20032;-72
2021/05/16 12:23:53;;;;;;;9.00;6.30;;;28.10;36.70;;;;;;5094537;28;20070;-72
2021/05/16 12:26:18;;;;;;;8.32;6.50;;;28.00;36.30;;;;;;5094587;28;20055;-72
2021/05/16 12:28:46;;;;;;;13.13;9.02;;;28.00;36.80;;;;;;5094313;28;20105;-72
2021/05/16 12:31:12;;;;;;;10.90;6.88;;;28.00;36.40;;;;;;5093034;28;20028;-73
2021/05/16 12:33:41;;;;;;;7.10;4.38;;;27.90;36.10;;;;;;5093469;28;20066;-72
2021/05/16 12:36:07;;;;;;;13.30;11.82;;;27.80;35.70;;;;;;5095560;28;20032;-72
2021/05/16 12:38:47;;;;;;;7.55;5.55;;;27.80;35.90;;;;;;5093851;28;20028;-72
2021/05/16 12:41:23;;;;;;;6.60;3.67;;;27.80;35.80;;;;;;5110927;28;20420;-72
2021/05/16 12:44:09;;;;;;;4.03;2.47;;;27.70;35.60;;;;;;5093047;28;20028;-72